createdAt,value
2018-12-18T00:01:01.201Z,14.07
2018-12-18T00:03:29.754Z,14.18
2018-12-18T00:05:58.321Z,15.20
2018-12-18T00:08:26.830Z,14.63
2018-12-18T00:11:00.771Z,12.63
2018-12-18T00:13:29.360Z,13.62
2018-12-18T00:15:58.003Z,13.85
2018-12-18T00:18:26.570Z,12.95
2018-12-18T00:20:55.140Z,13.88
2018-12-18T00:23:23.740Z,14.00
2018-12-18T00:25:52.525Z,14.55
2018-12-18T00:28:21.090Z,14.15
2018-12-18T00:30:49.691Z,13.83
2018-12-18T00:33:18.219Z,15.43
2018-12-18T00:35:46.811Z,15.45
2018-12-18T00:38:15.409Z,16.25
2018-12-18T00:40:43.968Z,15.25
2018-12-18T00:43:12.549Z,14.33
2018-12-18T00:45:41.685Z,14.35
2018-12-18T00:48:10.214Z,12.68
2018-12-18T00:50:38.786Z,13.08
2018-12-18T00:53:07.353Z,14.90
2018-12-18T00:55:35.937Z,14.70
2018-12-18T00:58:04.555Z,14.03
2018-12-18T01:00:33.155Z,14.25
2018-12-18T01:03:01.711Z,13.40
2018-12-18T01:05:30.318Z,14.10
2018-12-18T01:07:59.308Z,14.03
2018-12-18T01:10:28.151Z,13.35
2018-12-18T01:12:56.745Z,12.65
2018-12-18T01:15:25.466Z,12.10
2018-12-18T01:17:54.031Z,13.98
2018-12-18T01:20:22.635Z,13.60
2018-12-18T01:22:51.245Z,12.43
2018-12-18T01:25:19.775Z,13.03
2018-12-18T01:27:48.380Z,13.18
2018-12-18T01:30:17.254Z,13.72
2018-12-18T01:32:45.790Z,14.10
2018-12-18T01:35:14.448Z,13.32
2018-12-18T01:37:42.999Z,16.52
2018-12-18T01:40:11.608Z,13.88
2018-12-18T01:42:40.175Z,13.65
2018-12-18T01:45:08.754Z,13.20
2018-12-18T01:47:37.289Z,13.45
2018-12-18T01:50:06.139Z,12.00
2018-12-18T01:52:34.669Z,14.30
2018-12-18T01:55:05.929Z,11.63
2018-12-18T01:57:34.505Z,13.60
2018-12-18T02:00:10.380Z,14.13
2018-12-18T02:02:38.952Z,12.93
2018-12-18T02:05:07.637Z,12.45
2018-12-18T02:07:36.206Z,13.50
2018-12-18T02:10:05.586Z,13.60
2018-12-18T02:12:34.132Z,14.60
2018-12-18T02:15:02.684Z,14.10
2018-12-18T02:17:31.275Z,14.28
2018-12-18T02:19:59.844Z,13.70
2018-12-18T02:22:28.391Z,14.43
2018-12-18T02:24:56.945Z,12.65
2018-12-18T02:27:25.534Z,13.98
2018-12-18T02:29:54.120Z,12.88
2018-12-18T02:32:22.674Z,16.32
2018-12-18T02:34:51.479Z,13.20
2018-12-18T02:37:20.084Z,15.08
2018-12-18T02:39:48.635Z,13.88
2018-12-18T02:42:17.287Z,14.25
2018-12-18T02:44:45.856Z,14.25
2018-12-18T02:47:14.385Z,14.28
2018-12-18T02:49:42.921Z,13.05
2018-12-18T02:52:11.497Z,15.28
2018-12-18T02:54:40.070Z,14.00
2018-12-18T02:57:08.726Z,14.23
2018-12-18T02:59:37.317Z,13.65
2018-12-18T03:02:05.895Z,15.18
2018-12-18T03:04:34.473Z,13.83
2018-12-18T03:07:03.035Z,14.15
2018-12-18T03:09:31.623Z,14.25
2018-12-18T03:12:00.352Z,15.20
2018-12-18T03:14:28.942Z,14.20
2018-12-18T03:16:57.748Z,14.23
2018-12-18T03:19:26.324Z,15.25
2018-12-18T03:21:54.917Z,15.53
2018-12-18T03:24:23.552Z,14.85
2018-12-18T03:26:52.143Z,15.32
2018-12-18T03:29:21.305Z,15.18
2018-12-18T03:31:54.093Z,15.63
2018-12-18T03:34:28.227Z,17.17
2018-12-18T03:36:53.278Z,14.13
2018-12-18T03:39:21.874Z,15.48
2018-12-18T03:41:50.446Z,14.10
2018-12-18T03:44:19.028Z,14.20
2018-12-18T03:46:47.647Z,16.50
2018-12-18T03:49:16.196Z,15.80
2018-12-18T03:51:44.788Z,16.00
2018-12-18T03:54:13.400Z,15.88
2018-12-18T03:56:41.976Z,16.32
2018-12-18T03:59:10.547Z,18.30
2018-12-18T04:01:39.095Z,16.05
2018-12-18T04:04:07.619Z,17.37
2018-12-18T04:06:36.190Z,18.48
2018-12-18T04:09:07.031Z,18.02
2018-12-18T04:11:39.755Z,17.20
2018-12-18T04:14:08.302Z,17.77
2018-12-18T04:16:36.901Z,16.82
2018-12-18T04:19:05.496Z,18.23
2018-12-18T04:21:34.058Z,18.25
2018-12-18T04:24:02.633Z,16.48
2018-12-18T04:26:31.202Z,17.42
2018-12-18T04:28:59.760Z,16.50
2018-12-18T04:31:28.350Z,17.85
2018-12-18T04:33:56.926Z,17.20
2018-12-18T04:36:25.516Z,17.90
2018-12-18T04:38:54.095Z,17.35
2018-12-18T04:41:22.776Z,17.73
2018-12-18T04:43:51.357Z,16.82
2018-12-18T04:46:20.042Z,17.17
2018-12-18T04:48:48.622Z,16.57
2018-12-18T04:51:17.362Z,17.55
2018-12-18T04:53:46.040Z,16.60
2018-12-18T04:56:14.624Z,18.90
2018-12-18T04:58:43.252Z,15.78
2018-12-18T05:01:11.838Z,17.30
2018-12-18T05:03:40.366Z,19.23
2018-12-18T05:06:08.930Z,17.55
2018-12-18T05:08:38.485Z,18.30
2018-12-18T05:11:07.110Z,18.45
2018-12-18T05:13:35.731Z,20.12
2018-12-18T05:16:04.336Z,18.67
2018-12-18T05:18:33.011Z,20.10
2018-12-18T05:21:01.728Z,18.15
2018-12-18T05:23:30.277Z,19.98
2018-12-18T05:25:58.817Z,16.62
2018-12-18T05:28:27.478Z,16.17
2018-12-18T05:30:56.166Z,19.32
2018-12-18T05:33:24.786Z,19.20
2018-12-18T05:35:53.378Z,16.05
2018-12-18T05:38:21.941Z,17.82
2018-12-18T05:40:50.528Z,16.85
2018-12-18T05:43:19.112Z,18.87
2018-12-18T05:45:47.694Z,16.25
2018-12-18T05:48:16.310Z,16.35
2018-12-18T05:50:44.983Z,17.70
2018-12-18T05:53:13.577Z,18.50
2018-12-18T05:55:42.119Z,19.70
2018-12-18T05:58:10.689Z,19.40
2018-12-18T06:00:39.360Z,17.67
2018-12-18T06:03:07.902Z,21.15
2018-12-18T06:05:36.475Z,18.20
2018-12-18T06:08:05.006Z,18.23
2018-12-18T06:10:33.716Z,18.65
2018-12-18T06:13:02.426Z,19.48
2018-12-18T06:15:30.987Z,18.87
2018-12-18T06:17:59.554Z,17.10
2018-12-18T06:20:28.201Z,18.12
2018-12-18T06:22:57.117Z,21.30
2018-12-18T06:25:25.751Z,18.75
2018-12-18T06:27:54.381Z,18.82
2018-12-18T06:30:22.943Z,18.77
2018-12-18T06:32:51.516Z,21.02
2018-12-18T06:35:20.084Z,20.75
2018-12-18T06:37:48.653Z,17.65
2018-12-18T06:40:17.209Z,19.25
2018-12-18T06:42:45.845Z,18.37
2018-12-18T06:45:14.351Z,19.02
2018-12-18T06:47:42.970Z,18.52
2018-12-18T06:50:11.721Z,19.35
2018-12-18T06:52:40.462Z,18.67
2018-12-18T06:55:09.081Z,22.15
2018-12-18T06:57:37.744Z,18.07
2018-12-18T07:00:14.039Z,23.73
2018-12-18T07:02:42.682Z,20.55
2018-12-18T07:05:16.664Z,22.90
2018-12-18T07:07:44.325Z,20.80
2018-12-18T07:10:13.029Z,24.15
2018-12-18T07:12:41.605Z,20.43
2018-12-18T07:15:10.316Z,21.12
2018-12-18T07:17:38.983Z,20.85
2018-12-18T07:20:07.558Z,18.07
2018-12-18T07:22:36.133Z,18.50
2018-12-18T07:25:04.929Z,19.92
2018-12-18T07:27:33.517Z,21.60
2018-12-18T07:30:02.142Z,18.65
2018-12-18T07:32:30.817Z,20.27
2018-12-18T07:34:59.381Z,18.37
2018-12-18T07:37:27.963Z,19.70
2018-12-18T07:39:56.534Z,21.20
2018-12-18T07:42:25.132Z,18.92
2018-12-18T07:44:53.713Z,18.98
2018-12-18T07:47:22.279Z,23.55
2018-12-18T07:49:50.843Z,20.23
2018-12-18T07:52:19.469Z,22.13
2018-12-18T07:54:51.033Z,25.23
2018-12-18T07:57:19.577Z,21.85
2018-12-18T07:59:48.183Z,20.97
2018-12-18T08:02:16.792Z,19.62
2018-12-18T08:04:45.401Z,21.25
2018-12-18T08:07:14.040Z,23.30
2018-12-18T08:09:42.586Z,22.17
2018-12-18T08:12:11.134Z,24.12
2018-12-18T08:14:39.692Z,19.85
2018-12-18T08:17:08.255Z,20.52
2018-12-18T08:19:36.826Z,23.38
2018-12-18T08:22:05.999Z,16.37
2018-12-18T08:24:34.596Z,17.57
2018-12-18T08:27:03.159Z,15.55
2018-12-18T08:29:31.757Z,17.02
2018-12-18T08:32:00.349Z,18.98
2018-12-18T08:34:28.921Z,19.57
2018-12-18T08:36:57.580Z,19.73
2018-12-18T08:39:26.112Z,16.10
2018-12-18T08:41:54.645Z,17.35
2018-12-18T08:44:23.213Z,19.17
2018-12-18T08:46:51.825Z,19.32
2018-12-18T08:49:20.468Z,17.82
2018-12-18T08:51:49.019Z,17.82
2018-12-18T08:54:17.639Z,16.40
2018-12-18T08:56:46.204Z,16.75
2018-12-18T08:59:14.768Z,20.15
2018-12-18T09:01:43.404Z,17.77
2018-12-18T09:04:11.902Z,19.27
2018-12-18T09:06:40.442Z,20.50
2018-12-18T09:09:09.101Z,22.07
2018-12-18T09:11:37.659Z,22.22
2018-12-18T09:14:06.356Z,21.77
2018-12-18T09:16:40.128Z,25.80
2018-12-18T09:19:08.675Z,23.65
2018-12-18T09:21:37.468Z,22.48
2018-12-18T09:24:06.045Z,23.07
2018-12-18T09:26:34.633Z,20.10
2018-12-18T09:29:03.248Z,19.70
2018-12-18T09:31:31.871Z,20.50
2018-12-18T09:34:00.566Z,19.12
2018-12-18T09:36:29.143Z,20.72
2018-12-18T09:39:03.011Z,21.40
2018-12-18T09:41:36.861Z,20.10
2018-12-18T09:44:11.060Z,21.65
2018-12-18T09:46:39.562Z,21.00
2018-12-18T09:49:08.192Z,22.48
2018-12-18T09:51:36.741Z,20.23
2018-12-18T09:54:05.701Z,20.55
2018-12-18T09:56:38.369Z,20.27
2018-12-18T09:59:06.964Z,24.27
2018-12-18T10:01:35.527Z,18.87
2018-12-18T10:04:04.130Z,19.32
2018-12-18T10:06:32.674Z,16.02
2018-12-18T10:09:01.231Z,15.98
2018-12-18T10:11:29.816Z,16.52
2018-12-18T10:13:58.401Z,16.37
2018-12-18T10:16:26.972Z,18.07
2018-12-18T10:18:55.477Z,17.80
2018-12-18T10:21:24.053Z,16.10
2018-12-18T10:23:52.620Z,17.12
2018-12-18T10:26:21.236Z,15.75
2018-12-18T10:28:49.828Z,18.20
2018-12-18T10:31:18.418Z,18.82
2018-12-18T10:33:47.036Z,19.48
2018-12-18T10:36:15.873Z,17.98
2018-12-18T10:38:44.410Z,17.15
2018-12-18T10:41:12.979Z,17.60
2018-12-18T10:43:41.522Z,16.75
2018-12-18T10:46:10.058Z,18.85
2018-12-18T10:48:38.707Z,18.80
2018-12-18T10:51:07.275Z,18.02
2018-12-18T10:53:35.830Z,18.50
2018-12-18T10:56:04.568Z,17.17
2018-12-18T10:58:33.203Z,17.12
2018-12-18T11:01:07.044Z,16.73
2018-12-18T11:03:35.619Z,17.32
2018-12-18T11:06:09.845Z,17.65
2018-12-18T11:08:34.854Z,17.00
2018-12-18T11:11:04.116Z,18.60
2018-12-18T11:13:32.661Z,18.05
2018-12-18T11:16:01.234Z,21.48
2018-12-18T11:18:29.830Z,16.27
2018-12-18T11:20:58.584Z,15.50
2018-12-18T11:23:27.189Z,15.50
2018-12-18T11:25:55.787Z,17.23
2018-12-18T11:28:24.358Z,19.85
2018-12-18T11:30:52.900Z,18.45
2018-12-18T11:33:21.451Z,16.57
2018-12-18T11:35:50.248Z,19.67
2018-12-18T11:38:18.820Z,19.77
2018-12-18T11:40:47.401Z,20.37
2018-12-18T11:43:15.994Z,20.23
2018-12-18T11:45:44.649Z,18.77
2018-12-18T11:48:13.229Z,17.87
2018-12-18T11:50:41.789Z,18.93
2018-12-18T11:53:10.418Z,16.87
2018-12-18T11:55:38.961Z,15.40
2018-12-18T11:58:07.531Z,16.07
2018-12-18T12:00:36.630Z,14.23
2018-12-18T12:03:05.242Z,17.00
2018-12-18T12:05:33.794Z,19.57
2018-12-18T12:08:02.443Z,18.37
2018-12-18T12:10:31.000Z,17.42
2018-12-18T12:12:59.693Z,19.67
2018-12-18T12:15:28.257Z,18.73
2018-12-18T12:17:57.002Z,20.15
2018-12-18T12:20:25.601Z,17.52
2018-12-18T12:22:54.127Z,18.32
2018-12-18T12:25:22.907Z,16.93
2018-12-18T12:28:06.386Z,17.50
2018-12-18T12:30:35.752Z,16.15
2018-12-18T12:33:04.429Z,16.48
2018-12-18T12:35:33.105Z,16.42
2018-12-18T12:38:01.854Z,16.35
2018-12-18T12:40:30.465Z,16.48
2018-12-18T12:42:59.039Z,16.42
2018-12-18T12:45:27.589Z,18.85
2018-12-18T12:47:59.652Z,19.73
2018-12-18T12:50:28.428Z,20.00
2018-12-18T12:52:57.059Z,18.05
2018-12-18T12:55:25.628Z,17.75
2018-12-18T12:57:54.251Z,20.82
2018-12-18T13:00:22.865Z,20.10
2018-12-18T13:02:51.453Z,17.20
2018-12-18T13:05:20.001Z,17.32
2018-12-18T13:07:48.570Z,16.85
2018-12-18T13:10:17.157Z,17.23
2018-12-18T13:12:45.684Z,17.37
2018-12-18T13:15:14.225Z,17.17
2018-12-18T13:17:43.661Z,17.40
2018-12-18T13:20:12.279Z,18.57
2018-12-18T13:22:40.873Z,20.15
2018-12-18T13:25:09.416Z,17.92
2018-12-18T13:27:37.956Z,16.93
2018-12-18T13:30:13.877Z,19.17
2018-12-18T13:32:42.459Z,18.40
2018-12-18T13:35:11.082Z,16.65
2018-12-18T13:37:39.694Z,19.50
2018-12-18T13:40:08.614Z,16.10
2018-12-18T13:42:37.173Z,18.15
2018-12-18T13:45:06.125Z,16.07
2018-12-18T13:47:34.773Z,16.93
2018-12-18T13:50:03.473Z,16.05
2018-12-18T13:52:32.068Z,17.02
2018-12-18T13:55:00.671Z,17.45
2018-12-18T13:57:29.228Z,19.70
2018-12-18T13:59:57.762Z,19.90
2018-12-18T14:02:26.296Z,18.32
2018-12-18T14:04:54.875Z,19.25
2018-12-18T14:07:23.356Z,18.55
2018-12-18T14:09:51.936Z,21.52
2018-12-18T14:12:20.532Z,22.02
2018-12-18T14:14:49.065Z,21.40
2018-12-18T14:17:17.631Z,18.67
2018-12-18T14:19:46.193Z,19.73
2018-12-18T14:22:14.875Z,19.48
2018-12-18T14:24:43.537Z,22.00
2018-12-18T14:27:12.219Z,19.70
2018-12-18T14:29:40.744Z,23.00
2018-12-18T14:32:09.394Z,19.57
2018-12-18T14:34:38.028Z,17.92
2018-12-18T14:37:06.536Z,18.10
2018-12-18T14:39:35.095Z,17.85
2018-12-18T14:42:03.854Z,19.70
2018-12-18T14:44:32.409Z,17.77
2018-12-18T14:47:01.011Z,20.62
2018-12-18T14:49:29.596Z,19.92
2018-12-18T14:51:58.153Z,18.70
2018-12-18T14:54:27.007Z,17.25
2018-12-18T14:56:55.527Z,18.05
2018-12-18T14:59:24.123Z,18.90
2018-12-18T15:01:52.679Z,20.02
2018-12-18T15:04:21.333Z,21.10
2018-12-18T15:06:49.863Z,22.00
2018-12-18T15:09:18.803Z,20.80
2018-12-18T15:11:47.477Z,17.75
2018-12-18T15:14:16.069Z,20.08
2018-12-18T15:16:44.981Z,18.82
2018-12-18T15:19:13.717Z,21.25
2018-12-18T15:21:42.370Z,21.27
2018-12-18T15:24:10.953Z,19.82
2018-12-18T15:26:39.532Z,22.73
2018-12-18T15:29:08.077Z,19.82
2018-12-18T15:31:36.640Z,20.02
2018-12-18T15:34:05.358Z,21.62
2018-12-18T15:36:33.974Z,21.00
2018-12-18T15:41:37.633Z,19.23
2018-12-18T15:44:06.210Z,21.55
2018-12-18T15:46:34.855Z,21.23
2018-12-18T15:49:03.556Z,19.87
2018-12-18T15:51:32.101Z,21.37
2018-12-18T15:54:00.712Z,23.05
2018-12-18T15:56:29.392Z,20.80
2018-12-18T15:58:57.983Z,20.52
2018-12-18T16:01:26.626Z,22.52
2018-12-18T16:03:55.177Z,24.63
2018-12-18T16:06:23.732Z,20.90
2018-12-18T16:08:52.309Z,21.07
2018-12-18T16:11:20.919Z,20.08
2018-12-18T16:13:49.435Z,20.10
2018-12-18T16:16:18.017Z,23.30
2018-12-18T16:18:46.574Z,20.15
2018-12-18T16:21:15.128Z,21.50
2018-12-18T16:23:43.657Z,20.20
2018-12-18T16:26:12.222Z,19.73
2018-12-18T16:28:40.802Z,21.80
2018-12-18T16:31:09.401Z,17.95
2018-12-18T16:33:37.958Z,19.48
2018-12-18T16:36:06.616Z,20.43
2018-12-18T16:38:35.153Z,19.77
2018-12-18T16:41:03.746Z,18.65
2018-12-18T16:43:32.320Z,20.17
2018-12-18T16:46:00.881Z,19.37
2018-12-18T16:48:29.483Z,19.05
2018-12-18T16:50:58.051Z,18.65
2018-12-18T16:53:27.160Z,19.02
2018-12-18T16:55:55.703Z,18.98
2018-12-18T16:58:24.265Z,20.20
2018-12-18T17:00:52.848Z,21.80
2018-12-18T17:03:21.393Z,20.37
2018-12-18T17:05:49.929Z,21.35
2018-12-18T17:08:18.479Z,17.77
2018-12-18T17:10:47.085Z,18.70
2018-12-18T17:13:15.730Z,21.80
2018-12-18T17:15:44.328Z,18.20
2018-12-18T17:18:12.868Z,17.57
2018-12-18T17:20:41.445Z,20.05
2018-12-18T17:23:09.997Z,20.95
2018-12-18T17:25:38.533Z,19.75
2018-12-18T17:28:07.105Z,20.52
2018-12-18T17:30:35.746Z,21.80
2018-12-18T17:33:04.356Z,19.15
2018-12-18T17:35:32.907Z,19.10
2018-12-18T17:38:01.486Z,19.32
2018-12-18T17:40:30.669Z,20.15
2018-12-18T17:42:59.282Z,19.98
2018-12-18T17:45:27.828Z,19.23
2018-12-18T17:47:56.473Z,19.70
2018-12-18T17:50:25.114Z,19.50
2018-12-18T17:52:53.710Z,21.33
2018-12-18T17:55:22.299Z,20.45
2018-12-18T17:57:51.026Z,21.10
2018-12-18T18:00:19.681Z,20.05
2018-12-18T18:02:48.277Z,18.57
2018-12-18T18:05:16.883Z,19.37
2018-12-18T18:07:45.454Z,19.98
2018-12-18T18:10:13.978Z,21.70
2018-12-18T18:12:42.571Z,20.30
2018-12-18T18:15:11.793Z,20.37
2018-12-18T18:17:40.328Z,20.50
2018-12-18T18:20:09.192Z,24.90
2018-12-18T18:22:38.338Z,20.97
2018-12-18T18:25:07.144Z,24.07
2018-12-18T18:27:35.657Z,21.20
2018-12-18T18:30:12.778Z,21.00
2018-12-18T18:32:41.380Z,23.05
2018-12-18T18:35:09.932Z,21.05
2018-12-18T18:37:39.721Z,20.77
2018-12-18T18:40:09.175Z,19.48
2018-12-18T18:42:37.747Z,22.42
2018-12-18T18:45:06.872Z,19.50
2018-12-18T18:47:35.412Z,19.75
2018-12-18T18:50:04.324Z,22.62
2018-12-18T18:52:32.939Z,22.40
2018-12-18T18:55:01.517Z,21.40
2018-12-18T18:57:30.069Z,19.85
2018-12-18T18:59:58.862Z,22.62
2018-12-18T19:02:27.719Z,19.98
2018-12-18T19:04:56.519Z,19.32
2018-12-18T19:07:26.499Z,21.97
2018-12-18T19:09:55.173Z,21.07
2018-12-18T19:12:23.910Z,18.90
2018-12-18T19:14:52.633Z,18.90
2018-12-18T19:17:21.321Z,18.32
2018-12-18T19:19:50.036Z,21.00
2018-12-18T19:22:19.554Z,19.80
2018-12-18T19:24:48.966Z,16.93
2018-12-18T19:27:18.698Z,18.65
2018-12-18T19:29:47.971Z,21.85
2018-12-18T19:32:16.609Z,18.07
2018-12-18T19:34:45.169Z,22.25
2018-12-18T19:37:13.833Z,20.40
2018-12-18T19:39:42.619Z,17.45
2018-12-18T19:42:11.328Z,19.95
2018-12-18T19:44:39.928Z,19.10
2018-12-18T19:47:08.478Z,21.20
2018-12-18T19:49:37.040Z,19.48
2018-12-18T19:52:05.593Z,19.05
2018-12-18T19:54:34.151Z,19.15
2018-12-18T19:57:02.730Z,17.60
2018-12-18T19:59:31.357Z,16.62
2018-12-18T20:01:59.972Z,19.20
2018-12-18T20:04:29.447Z,17.75
2018-12-18T20:06:58.005Z,19.55
2018-12-18T20:09:26.552Z,16.87
2018-12-18T20:11:55.147Z,18.70
2018-12-18T20:14:23.659Z,16.37
2018-12-18T20:16:52.268Z,18.12
2018-12-18T20:19:21.039Z,18.70
2018-12-18T20:21:49.569Z,16.60
2018-12-18T20:24:18.154Z,17.37
2018-12-18T20:26:46.703Z,18.35
2018-12-18T20:29:15.284Z,19.50
2018-12-18T20:31:43.873Z,20.57
2018-12-18T20:34:12.414Z,17.15
2018-12-18T20:36:40.930Z,16.60
2018-12-18T20:39:10.585Z,19.30
2018-12-18T20:41:39.337Z,17.12
2018-12-18T20:44:07.931Z,19.40
2018-12-18T20:46:36.521Z,20.12
2018-12-18T20:49:05.109Z,16.40
2018-12-18T20:51:33.684Z,16.40
2018-12-18T20:54:02.297Z,16.42
2018-12-18T20:56:30.861Z,15.80
2018-12-18T20:58:59.455Z,15.63
2018-12-18T21:01:28.618Z,16.07
2018-12-18T21:03:57.417Z,15.80
2018-12-18T21:06:26.833Z,16.90
2018-12-18T21:08:55.408Z,17.10
2018-12-18T21:11:23.976Z,16.35
2018-12-18T21:13:52.501Z,19.15
2018-12-18T21:16:21.064Z,21.30
2018-12-18T21:18:49.579Z,19.17
2018-12-18T21:21:18.139Z,14.73
2018-12-18T21:23:46.637Z,17.55
2018-12-18T21:26:15.170Z,20.02
2018-12-18T21:28:43.846Z,17.48
2018-12-18T21:31:12.570Z,18.77
2018-12-18T21:33:41.062Z,17.80
2018-12-18T21:36:09.822Z,15.28
2018-12-18T21:38:38.412Z,16.15
2018-12-18T21:41:06.979Z,16.02
2018-12-18T21:43:35.536Z,17.98
2018-12-18T21:46:04.110Z,15.28
2018-12-18T21:48:32.652Z,18.42
2018-12-18T21:51:01.473Z,16.27
2018-12-18T21:53:30.069Z,16.60
2018-12-18T21:55:58.627Z,16.30
2018-12-18T21:58:27.199Z,16.97
2018-12-18T22:00:55.787Z,17.35
2018-12-18T22:03:24.489Z,17.98
2018-12-18T22:05:53.219Z,16.65
2018-12-18T22:08:21.753Z,16.85
2018-12-18T22:10:50.317Z,15.65
2018-12-18T22:13:18.865Z,16.17
2018-12-18T22:15:47.385Z,17.27
2018-12-18T22:18:15.942Z,14.83
2018-12-18T22:20:44.608Z,14.95
2018-12-18T22:23:13.156Z,18.37
2018-12-18T22:25:41.680Z,17.55
2018-12-18T22:28:10.317Z,17.75
2018-12-18T22:30:38.909Z,17.48
2018-12-18T22:33:07.394Z,17.25
2018-12-18T22:35:35.940Z,16.52
2018-12-18T22:38:04.499Z,16.97
2018-12-18T22:40:33.097Z,17.45
2018-12-18T22:43:01.636Z,17.12
2018-12-18T22:45:30.257Z,15.85
2018-12-18T22:47:58.808Z,15.28
2018-12-18T22:50:27.328Z,15.65
2018-12-18T22:52:55.888Z,16.87
2018-12-18T22:55:24.455Z,14.63
2018-12-18T22:57:53.027Z,15.93
2018-12-18T23:00:26.688Z,15.50
2018-12-18T23:02:55.335Z,15.53
2018-12-18T23:05:23.947Z,14.80
2018-12-18T23:07:52.506Z,16.97
2018-12-18T23:10:21.022Z,16.75
2018-12-18T23:12:49.592Z,17.45
2018-12-18T23:15:18.218Z,14.93
2018-12-18T23:17:46.771Z,17.20
2018-12-18T23:20:15.320Z,15.75
2018-12-18T23:22:43.876Z,15.18
2018-12-18T23:25:12.416Z,17.27
2018-12-18T23:27:40.989Z,17.60
2018-12-18T23:30:10.051Z,16.65
2018-12-18T23:32:38.590Z,14.98
2018-12-18T23:35:07.304Z,14.25
2018-12-18T23:37:35.836Z,18.17
2018-12-18T23:40:04.457Z,15.55
2018-12-18T23:42:33.045Z,16.40
2018-12-18T23:45:01.575Z,15.48
2018-12-18T23:47:30.116Z,17.42
2018-12-18T23:49:58.610Z,16.30
2018-12-18T23:52:27.192Z,13.58
2018-12-18T23:54:55.717Z,14.15
2018-12-18T23:57:24.452Z,14.53
2018-12-18T23:59:52.957Z,13.68
